Skip Navigation LinksHome page > Tools > METAR decoder Skip Navigation Links

METAR decoder

Settings

METAR

Chicago O'Hare Intl, Chicago

For information only: do not use for flight planning or navigation.
Latest weather
Observation time Tuesday, September 30, 2014 11:51 PM CDT
Local time Saturday, November 1, 2014 12:52 AM CDT
Flight conditions Visual Meteorological Conditions
Winds
Wind direction North (350°)
Wind speed 16 mph
Wind gusting to 24 mph
Visibility 10 mi.
Present weather light snow
Sky condition
Ceiling 3,900 ft. overcast
Cloud layer overcast 3,900 ft.
Temperature 35°F
Dewpoint 21°F
Altimeter 30.34 in.Hg
Precipitation
Snow ended 10:55 PM
Snow began 11:48 PM
Precipitation last hour trace
Derived measurements
Relative humidity 56%
Wind chill 25°F
Density altitude -1369 ft.
Sea-level pressure 30.36 in.Hg
Remarks
Automated weather observing station with precipitation discriminator.
METAR KORD 010451Z 35014G21KT 10SM -SN OVC039 02/M06 A3034 RMK AO2 SNE0355B48 SLP280 P0000 T00171061

InnerDrive.Weather 4.0.5399.0 Release CLR 4.0.30319.34014
Copyright ©2014 Inner Drive Technology. All rights reserved. Portions Copyright ©1986-2014 David Braverman.

Find weather

Site navigation


Skip Navigation Links

Place info

Page info

PayPal - The safer, easier way to pay online!

Return home.

Copyright ©2014 Inner Drive Technology. Purveyors of fine, hand-crafted computer software. Page printed 2014-11-01T05:52:17 UTC.